Time;durP1;ratioP1;P1;durP2;ratioP2;P2;SDS_P1;SDS_P2;PMS_P1;PMS_P2;Temp;Humidity;BMP_temperature;BMP_pressure;BME280_temperature;BME280_humidity;BME280_pressure;Samples;Min_cycle;Max_cycle;Signal;HPM_P1;HPM_P2
2022/07/31 00:00:41;;;;;;;4.15;3.75;;;;;;;26.00;58.46;99428.00;5025594;28;20029;-73
2022/07/31 00:03:07;;;;;;;4.35;3.83;;;;;;;25.82;58.68;99425.00;5023499;28;20267;-72
2022/07/31 00:05:33;;;;;;;3.70;3.22;;;;;;;25.92;59.56;99419.59;5023057;28;20038;-72
2022/07/31 00:08:00;;;;;;;3.47;3.17;;;;;;;26.01;59.32;99418.81;5025126;28;20080;-71
2022/07/31 00:10:25;;;;;;;5.30;3.53;;;;;;;25.96;60.09;99424.22;5028476;28;20045;-71
2022/07/31 00:12:51;;;;;;;4.53;3.70;;;;;;;25.87;60.72;99408.75;5024843;28;20048;-72
2022/07/31 00:15:17;;;;;;;4.75;3.65;;;;;;;25.82;61.38;99408.75;5029087;28;20038;-71
2022/07/31 00:17:43;;;;;;;3.90;3.45;;;;;;;25.74;62.28;99401.94;5008637;28;20028;-70
2022/07/31 00:20:12;;;;;;;4.20;3.65;;;;;;;25.84;62.63;99442.63;5024914;28;20156;-72
2022/07/31 00:22:38;;;;;;;5.15;3.78;;;;;;;25.72;63.26;99432.06;5022940;28;20296;-71
2022/07/31 00:25:04;;;;;;;6.88;4.25;;;;;;;25.55;64.21;99439.56;5023566;28;20049;-70
2022/07/31 00:27:30;;;;;;;6.32;4.28;;;;;;;25.43;65.66;99437.09;5026091;28;20291;-70
2022/07/31 00:29:55;;;;;;;6.65;4.30;;;;;;;25.35;66.65;99437.63;5024460;28;20041;-70
2022/07/31 00:32:21;;;;;;;4.57;4.15;;;;;;;25.46;66.64;99436.56;5024923;28;20047;-70
2022/07/31 00:34:46;;;;;;;5.40;4.43;;;;;;;25.40;67.46;99444.94;5025868;28;20033;-72
2022/07/31 00:37:12;;;;;;;5.40;4.30;;;;;;;25.33;67.88;99452.50;5025909;28;20049;-70
2022/07/31 00:39:37;;;;;;;4.18;3.42;;;;;;;25.09;70.06;99462.97;5023562;28;20080;-70
2022/07/31 00:42:04;;;;;;;4.88;4.20;;;;;;;24.94;72.02;99458.25;5021893;28;20331;-70
2022/07/31 00:44:30;;;;;;;4.97;4.05;;;;;;;24.89;70.87;99457.41;5023821;28;20052;-72
2022/07/31 00:46:55;;;;;;;4.40;4.00;;;;;;;24.94;70.11;99452.81;5022663;28;20038;-70
2022/07/31 00:49:20;;;;;;;7.10;4.13;;;;;;;24.84;70.14;99440.03;5022585;28;20030;-70
2022/07/31 00:51:46;;;;;;;5.18;3.97;;;;;;;25.02;69.77;99451.56;5030910;28;20029;-73
2022/07/31 00:54:12;;;;;;;6.32;4.25;;;;;;;25.00;70.15;99459.16;5041955;28;20026;-70
2022/07/31 00:56:38;;;;;;;10.70;4.43;;;;;;;24.85;70.73;99454.41;5036081;28;20231;-71
2022/07/31 00:59:04;;;;;;;5.25;4.45;;;;;;;24.97;70.02;99446.94;5022207;28;20029;-73
2022/07/31 01:01:29;;;;;;;5.50;4.45;;;;;;;25.10;69.73;99456.50;5022702;28;20030;-70
2022/07/31 01:03:55;;;;;;;4.80;4.35;;;;;;;25.29;69.08;99446.00;5024280;28;20379;-70
2022/07/31 01:06:21;;;;;;;4.80;4.18;;;;;;;25.26;68.74;99450.06;5024544;28;20093;-73
2022/07/31 01:08:47;;;;;;;4.47;3.72;;;;;;;25.20;68.51;99453.00;5026740;28;20030;-70
2022/07/31 01:11:27;;;;;;;6.70;4.20;;;;;;;25.10;68.06;99457.31;5025217;28;20037;-70
2022/07/31 01:13:58;;;;;;;4.90;3.75;;;;;;;25.24;67.46;99460.34;5024975;28;20037;-70
2022/07/31 01:16:27;;;;;;;5.88;4.00;;;;;;;25.28;67.14;99468.75;5025905;28;20053;-73
2022/07/31 01:18:55;;;;;;;4.72;3.85;;;;;;;25.13;67.59;99472.22;5025932;28;20040;-70
2022/07/31 01:21:34;;;;;;;5.28;4.25;;;;;;;25.03;68.27;99481.09;5024462;28;20041;-70
2022/07/31 01:24:26;;;;;;;4.85;3.90;;;;;;;24.70;70.31;99493.03;5023906;28;20105;-72
2022/07/31 01:27:09;;;;;;;5.78;4.10;;;;;;;24.69;70.48;99488.69;5015164;28;20056;-72
2022/07/31 01:29:41;;;;;;;4.90;4.20;;;;;;;24.41;72.01;99473.59;5024934;28;20025;-70
2022/07/31 01:32:14;;;;;;;5.90;4.00;;;;;;;24.38;72.35;99479.53;5024467;28;20037;-70
2022/07/31 01:34:53;;;;;;;7.00;4.35;;;;;;;24.01;74.18;99473.22;5040730;28;20033;-73
2022/07/31 01:37:41;;;;;;;9.70;4.53;;;;;;;24.22;73.66;99471.53;5022289;28;20037;-72
2022/07/31 01:40:10;;;;;;;8.82;4.93;;;;;;;24.09;74.26;99480.88;5023948;28;20033;-70
2022/07/31 01:42:38;;;;;;;5.65;5.00;;;;;;;23.99;75.26;99470.78;5023654;28;20026;-73
2022/07/31 01:45:09;;;;;;;7.15;4.60;;;;;;;24.15;74.62;99474.44;5024926;28;20080;-72
2022/07/31 01:47:36;;;;;;;6.93;4.72;;;;;;;24.09;74.55;99459.25;5023352;28;20101;-73
2022/07/31 01:50:04;;;;;;;5.35;4.60;;;;;;;23.96;75.44;99471.28;5018067;28;20021;-72
2022/07/31 01:52:31;;;;;;;6.03;4.93;;;;;;;24.01;75.52;99471.34;5024030;28;20113;-70
2022/07/31 01:54:59;;;;;;;5.75;4.75;;;;;;;23.97;75.55;99470.22;5023798;28;20028;-70
2022/07/31 01:57:26;;;;;;;7.07;4.63;;;;;;;23.78;76.40;99472.44;5024308;28;20361;-70
2022/07/31 01:59:58;;;;;;;6.07;4.68;;;;;;;23.79;76.51;99468.66;5019828;28;20022;-70
2022/07/31 02:02:25;;;;;;;7.40;4.68;;;;;;;23.67;76.72;99470.69;5021752;28;20315;-72
2022/07/31 02:04:52;;;;;;;5.72;4.63;;;;;;;23.54;76.75;99466.50;5024429;28;20201;-72
2022/07/31 02:07:19;;;;;;;6.93;4.57;;;;;;;23.58;77.13;99460.59;5024424;28;20044;-73
2022/07/31 02:09:46;;;;;;;7.03;4.53;;;;;;;23.75;75.52;99466.72;5024084;28;20022;-73
2022/07/31 02:12:11;;;;;;;5.88;4.72;;;;;;;23.74;75.79;99481.31;5005247;28;20041;-73
2022/07/31 02:14:40;;;;;;;5.85;4.95;;;;;;;23.51;76.34;99477.78;5024670;28;20037;-70
2022/07/31 02:17:08;;;;;;;4.80;4.30;;;;;;;23.58;76.04;99472.22;5005841;28;20196;-70
2022/07/31 02:19:37;;;;;;;6.85;4.70;;;;;;;23.32;77.47;99476.47;5023099;28;20030;-71
2022/07/31 02:22:03;;;;;;;7.88;4.82;;;;;;;23.24;78.01;99464.22;5021020;28;20026;-70
2022/07/31 02:24:29;;;;;;;7.57;4.88;;;;;;;23.23;78.70;99484.22;5021690;28;20038;-70
2022/07/31 02:26:56;;;;;;;5.82;4.60;;;;;;;23.17;78.67;99466.31;5023064;28;20030;-73
2022/07/31 02:29:27;;;;;;;6.18;4.55;;;;;;;23.53;77.55;99472.13;5024219;28;20053;-73
2022/07/31 02:31:54;;;;;;;6.57;4.60;;;;;;;23.65;76.86;99467.44;5024029;28;20038;-72
2022/07/31 02:34:22;;;;;;;6.05;5.10;;;;;;;23.51;77.20;99474.28;5005641;28;20087;-70
2022/07/31 02:36:50;;;;;;;6.35;5.15;;;;;;;23.51;77.24;99475.09;5022915;28;20068;-70
2022/07/31 02:39:17;;;;;;;8.30;5.63;;;;;;;23.42;77.74;99479.31;5023644;28;20045;-72
2022/07/31 02:41:43;;;;;;;7.70;5.70;;;;;;;23.34;78.24;99474.34;5023654;28;20025;-72
2022/07/31 02:44:13;;;;;;;8.55;5.50;;;;;;;23.40;78.53;99476.03;5024403;28;20585;-72
2022/07/31 02:46:41;;;;;;;6.60;5.55;;;;;;;23.61;77.32;99469.00;5024571;28;20064;-72
2022/07/31 02:49:08;;;;;;;8.32;6.35;;;;;;;23.45;78.36;99470.69;5021447;28;20038;-70
2022/07/31 02:51:33;;;;;;;8.63;6.90;;;;;;;23.15;80.71;99468.44;5020489;28;20045;-72
2022/07/31 02:53:59;;;;;;;12.93;6.68;;;;;;;23.12;80.95;99466.25;5023267;28;20080;-71
2022/07/31 02:56:26;;;;;;;8.93;6.60;;;;;;;23.21;80.67;99458.53;5026398;28;20238;-70
2022/07/31 02:58:52;;;;;;;12.00;7.32;;;;;;;23.12;81.39;99462.72;5024906;28;20037;-73
2022/07/31 03:01:17;;;;;;;10.70;7.70;;;;;;;23.09;82.33;99463.22;5023919;28;20041;-71
2022/07/31 03:03:43;;;;;;;10.80;7.75;;;;;;;23.13;82.30;99469.75;5027476;28;20053;-72
2022/07/31 03:06:08;;;;;;;10.15;7.43;;;;;;;23.11;82.48;99464.59;5027144;28;21413;-71
2022/07/31 03:08:34;;;;;;;12.95;7.63;;;;;;;22.90;83.13;99460.81;5026588;28;20323;-70
2022/07/31 03:11:00;;;;;;;11.52;8.07;;;;;;;22.90;83.57;99479.72;5026737;28;20038;-70
2022/07/31 03:13:28;;;;;;;13.90;8.43;;;;;;;23.07;82.75;99478.88;5027614;28;20065;-72
2022/07/31 03:15:56;;;;;;;14.77;8.68;;;;;;;22.92;83.19;99472.19;5026999;28;20029;-70
2022/07/31 03:18:23;;;;;;;8.45;7.35;;;;;;;22.73;84.08;99462.69;5013547;28;20028;-73
2022/07/31 03:20:50;;;;;;;10.52;7.45;;;;;;;22.91;83.20;99472.44;5027196;28;20025;-71
2022/07/31 03:23:18;;;;;;;13.32;7.07;;;;;;;22.85;83.42;99478.81;5028999;28;20258;-70
2022/07/31 03:25:44;;;;;;;10.13;6.90;;;;;;;22.78;83.81;99481.66;5027477;28;20033;-70
2022/07/31 03:28:10;;;;;;;9.40;6.80;;;;;;;22.78;83.68;99478.94;5025632;28;20042;-72
2022/07/31 03:30:36;;;;;;;9.73;6.75;;;;;;;22.82;83.09;99477.41;5027437;28;20029;-70
2022/07/31 03:33:02;;;;;;;11.77;6.15;;;;;;;22.88;82.99;99478.31;5026890;28;20101;-70
2022/07/31 03:35:28;;;;;;;10.77;5.78;;;;;;;22.76;82.86;99478.38;5025705;28;20076;-71
2022/07/31 03:37:54;;;;;;;11.38;6.30;;;;;;;22.87;82.72;99482.88;5026569;28;20064;-73
2022/07/31 03:40:19;;;;;;;6.72;5.30;;;;;;;22.90;82.24;99474.31;5025884;28;20331;-73
2022/07/31 03:42:47;;;;;;;7.38;5.97;;;;;;;22.82;82.60;99476.59;5008491;28;20029;-73
2022/07/31 03:45:15;;;;;;;10.23;6.70;;;;;;;23.06;81.01;99478.03;5024809;28;20104;-73
2022/07/31 03:47:41;;;;;;;9.93;5.80;;;;;;;22.93;81.17;99486.50;5026379;28;20283;-75
2022/07/31 03:50:07;;;;;;;10.45;5.63;;;;;;;22.86;81.86;99499.34;5027250;28;20455;-73
2022/07/31 03:52:34;;;;;;;12.05;5.85;;;;;;;22.82;82.53;99495.50;5025792;28;20080;-73
2022/07/31 03:55:00;;;;;;;9.30;6.25;;;;;;;22.96;81.76;99496.00;5026817;28;20149;-73
2022/07/31 03:57:27;;;;;;;9.52;6.22;;;;;;;22.69;82.53;99493.09;5007693;28;20199;-73
2022/07/31 03:59:56;;;;;;;9.40;6.35;;;;;;;22.81;81.38;99500.06;5024913;28;20032;-73
2022/07/31 04:02:24;;;;;;;7.93;5.80;;;;;;;22.87;81.19;99495.56;5026964;28;20030;-73
2022/07/31 04:04:49;;;;;;;10.10;6.00;;;;;;;22.90;80.50;99495.91;5025415;28;20034;-75
2022/07/31 04:07:15;;;;;;;10.95;6.03;;;;;;;22.63;82.01;99500.31;5024757;28;20320;-73
2022/07/31 04:09:40;;;;;;;10.68;6.10;;;;;;;22.84;81.43;99499.59;5025885;28;20223;-75
2022/07/31 04:12:06;;;;;;;8.80;5.45;;;;;;;22.97;80.47;99486.81;5023888;28;20034;-75
2022/07/31 04:14:31;;;;;;;9.40;5.93;;;;;;;23.10;79.72;99498.09;5028735;28;20036;-74
2022/07/31 04:16:57;;;;;;;7.90;6.03;;;;;;;23.17;79.29;99493.31;5026981;28;20231;-75
2022/07/31 04:19:22;;;;;;;10.65;6.78;;;;;;;23.12;77.65;99474.34;5025394;28;20050;-73
2022/07/31 04:21:49;;;;;;;11.75;8.20;;;;;;;23.37;76.66;99495.47;5025414;28;20029;-74
2022/07/31 04:24:17;;;;;;;9.48;7.15;;;;;;;23.20;76.79;99494.69;5024644;28;20038;-73
2022/07/31 04:26:43;;;;;;;7.13;5.05;;;;;;;23.35;75.79;99484.09;5024999;28;20083;-73
2022/07/31 04:29:08;;;;;;;9.93;5.18;;;;;;;23.41;75.07;99483.06;5026138;28;20056;-75
2022/07/31 04:31:34;;;;;;;5.68;4.43;;;;;;;23.62;74.08;99483.34;5025229;28;20033;-75
2022/07/31 04:33:59;;;;;;;7.50;4.10;;;;;;;23.77;72.78;99475.41;5006559;28;20060;-73
2022/07/31 04:36:25;;;;;;;6.25;4.28;;;;;;;23.86;72.37;99481.97;5022212;28;20033;-75
2022/07/31 04:38:50;;;;;;;7.43;4.30;;;;;;;23.89;72.07;99485.00;5024332;28;20033;-75
2022/07/31 04:41:16;;;;;;;7.85;4.90;;;;;;;23.94;71.59;99480.72;5009715;28;20164;-75
2022/07/31 04:43:42;;;;;;;5.82;4.50;;;;;;;23.99;70.79;99476.19;5025731;28;20041;-73
2022/07/31 04:46:07;;;;;;;6.93;4.80;;;;;;;24.17;70.57;99485.81;5024756;28;20109;-73
2022/07/31 04:48:34;;;;;;;7.70;4.50;;;;;;;24.09;70.18;99476.28;5025821;28;20349;-73
2022/07/31 04:50:59;;;;;;;7.00;4.65;;;;;;;24.36;69.07;99489.81;5025409;28;20312;-73
2022/07/31 04:53:25;;;;;;;8.48;5.32;;;;;;;24.41;68.66;99489.84;5024056;28;20036;-73
2022/07/31 04:58:34;;;;;;;5.70;4.07;;;;;;;24.70;67.12;99484.09;5025282;28;20075;-74
2022/07/31 05:01:01;;;;;;;5.55;4.47;;;;;;;24.83;66.11;99480.94;5025057;28;20038;-73
2022/07/31 05:03:26;;;;;;;6.28;3.75;;;;;;;25.10;65.67;99481.69;5024881;28;20087;-75
2022/07/31 05:05:52;;;;;;;5.78;4.00;;;;;;;25.27;65.10;99494.22;5006157;28;20105;-73
2022/07/31 05:08:17;;;;;;;6.22;3.88;;;;;;;25.32;64.77;99500.47;5024313;28;20049;-75
2022/07/31 05:13:26;;;;;;;7.78;3.72;;;;;;;25.76;63.00;99494.69;5021970;28;20033;-72
2022/07/31 05:15:52;;;;;;;6.32;3.78;;;;;;;25.77;62.63;99488.19;5024026;28;20262;-73
2022/07/31 05:18:17;;;;;;;4.40;3.70;;;;;;;25.93;62.61;99489.84;5025025;28;20357;-70
2022/07/31 05:20:43;;;;;;;7.47;3.97;;;;;;;26.16;60.28;99499.41;5025183;28;20030;-70
2022/07/31 05:23:08;;;;;;;5.28;3.33;;;;;;;26.24;60.07;99488.00;5024853;28;20362;-71
2022/07/31 05:25:33;;;;;;;4.53;3.30;;;;;;;26.42;58.76;99486.69;5023908;28;20033;-70
2022/07/31 05:27:59;;;;;;;5.20;3.67;;;;;;;26.65;57.31;99496.19;5023417;28;20306;-71
2022/07/31 05:30:24;;;;;;;5.47;3.60;;;;;;;26.68;56.78;99488.28;5021470;28;20026;-73
2022/07/31 05:32:50;;;;;;;4.97;3.70;;;;;;;26.73;55.73;99487.47;5024092;28;20298;-73
2022/07/31 05:35:15;;;;;;;5.72;3.55;;;;;;;26.65;55.92;99480.69;5024130;28;20337;-71
2022/07/31 05:37:41;;;;;;;8.10;3.83;;;;;;;26.62;55.61;99472.28;5025044;28;20037;-71
2022/07/31 05:40:07;;;;;;;4.68;3.70;;;;;;;26.87;55.06;99480.38;5024078;28;20071;-70
2022/07/31 05:42:32;;;;;;;5.40;4.20;;;;;;;26.79;54.61;99458.41;5023815;28;20045;-72
2022/07/31 05:44:58;;;;;;;6.82;3.72;;;;;;;27.26;54.21;99475.16;5024174;28;20041;-70
2022/07/31 05:47:23;;;;;;;5.07;3.85;;;;;;;26.98;54.80;99470.34;5023302;28;20052;-71
2022/07/31 05:49:50;;;;;;;5.82;4.10;;;;;;;27.08;54.51;99477.66;5026038;28;20053;-70
2022/07/31 05:52:18;;;;;;;6.45;4.30;;;;;;;27.23;53.94;99475.72;5023841;28;20032;-73
2022/07/31 05:54:44;;;;;;;6.72;4.15;;;;;;;27.49;52.95;99475.59;5026994;28;20335;-70
2022/07/31 05:57:10;;;;;;;7.05;4.03;;;;;;;27.40;51.07;99477.28;5024423;28;20033;-72
2022/07/31 05:59:35;;;;;;;7.88;3.83;;;;;;;27.52;50.76;99475.03;5022995;28;20125;-73
2022/07/31 06:02:01;;;;;;;4.90;3.67;;;;;;;27.88;49.86;99468.31;5024803;28;20068;-70
2022/07/31 06:04:26;;;;;;;7.25;3.42;;;;;;;27.91;49.30;99480.56;5023693;28;20215;-71
2022/07/31 06:06:52;;;;;;;7.55;3.58;;;;;;;28.07;49.33;99473.09;5023336;28;20034;-70
2022/07/31 06:09:17;;;;;;;8.20;3.53;;;;;;;28.08;49.34;99472.00;5024377;28;20399;-73
2022/07/31 06:11:42;;;;;;;4.63;3.67;;;;;;;27.99;49.71;99460.91;5022151;28;20063;-71
2022/07/31 06:14:08;;;;;;;4.28;3.72;;;;;;;27.92;50.33;99468.56;5024518;28;20231;-70
2022/07/31 06:16:34;;;;;;;10.18;3.78;;;;;;;28.14;50.28;99460.81;5020603;28;20029;-73
2022/07/31 06:18:59;;;;;;;4.95;3.80;;;;;;;28.46;47.89;99473.91;5024975;28;20045;-71
2022/07/31 06:21:25;;;;;;;7.10;3.88;;;;;;;28.57;47.75;99470.00;5006081;28;20067;-72
2022/07/31 06:23:50;;;;;;;6.53;3.90;;;;;;;28.78;47.12;99481.50;5024911;28;20052;-71
2022/07/31 06:26:15;;;;;;;6.40;4.00;;;;;;;28.87;46.56;99471.63;5023092;28;20266;-70
2022/07/31 06:28:41;;;;;;;9.30;4.30;;;;;;;29.10;46.81;99471.94;5023746;28;20038;-70
2022/07/31 06:31:06;;;;;;;4.70;3.55;;;;;;;29.14;46.51;99476.53;5008137;28;20037;-73
2022/07/31 06:33:32;;;;;;;9.13;3.90;;;;;;;29.30;46.35;99471.72;5027440;28;20030;-71
2022/07/31 06:35:57;;;;;;;6.53;3.90;;;;;;;29.24;46.18;99468.25;5027978;28;20038;-71
2022/07/31 06:38:23;;;;;;;5.43;4.00;;;;;;;29.26;46.70;99478.03;5011277;28;20044;-71
2022/07/31 06:40:50;;;;;;;6.50;4.50;;;;;;;29.42;45.74;99465.84;5009036;28;20022;-71
2022/07/31 06:43:16;;;;;;;6.72;4.75;;;;;;;29.20;45.90;99467.19;5027581;28;20112;-71
2022/07/31 06:45:41;;;;;;;5.32;4.50;;;;;;;29.47;44.94;99474.81;5027205;28;20037;-73
2022/07/31 06:48:11;;;;;;;5.45;4.30;;;;;;;29.69;44.56;99463.31;5027886;28;20053;-73
2022/07/31 06:50:37;;;;;;;6.00;4.30;;;;;;;29.39;45.14;99469.16;5025279;28;20037;-71
2022/07/31 06:53:02;;;;;;;6.85;4.28;;;;;;;29.60;45.09;99464.25;5025729;28;20045;-73
2022/07/31 06:55:28;;;;;;;7.18;4.85;;;;;;;29.65;44.62;99466.94;5028590;28;20048;-71
2022/07/31 06:57:53;;;;;;;8.70;4.53;;;;;;;29.87;44.09;99457.03;5028063;28;20105;-73
2022/07/31 07:00:19;;;;;;;7.30;4.40;;;;;;;29.81;43.47;99460.94;5026721;28;20030;-72
2022/07/31 07:02:44;;;;;;;8.20;4.38;;;;;;;29.64;44.54;99449.75;5026827;28;20050;-72
2022/07/31 07:05:10;;;;;;;6.40;4.78;;;;;;;29.84;44.74;99465.00;5023920;28;20067;-73
2022/07/31 07:07:36;;;;;;;10.07;5.07;;;;;;;29.85;44.23;99469.34;5024280;28;20107;-71
2022/07/31 07:10:03;;;;;;;8.68;4.68;;;;;;;29.87;43.97;99440.66;5025163;28;20034;-71
2022/07/31 07:12:28;;;;;;;11.25;4.72;;;;;;;30.18;43.28;99464.81;5010794;28;20108;-73
2022/07/31 07:14:54;;;;;;;7.82;4.65;;;;;;;30.55;42.18;99466.63;5028068;28;20037;-71
2022/07/31 07:17:20;;;;;;;5.32;4.30;;;;;;;30.58;42.38;99457.84;5028210;28;20033;-72
2022/07/31 07:19:46;;;;;;;9.65;5.13;;;;;;;30.61;41.92;99451.81;5026724;28;20037;-73
2022/07/31 07:22:11;;;;;;;5.55;4.55;;;;;;;30.87;42.39;99448.59;5026623;28;20048;-70
2022/07/31 07:24:36;;;;;;;6.43;5.00;;;;;;;31.18;40.82;99452.38;5027330;28;20278;-73
2022/07/31 07:27:02;;;;;;;7.78;4.82;;;;;;;30.91;41.95;99444.13;5026341;28;20048;-73
2022/07/31 07:29:28;;;;;;;8.15;4.97;;;;;;;31.08;40.95;99453.34;5026802;28;20057;-71
2022/07/31 07:31:53;;;;;;;9.10;5.13;;;;;;;31.12;41.20;99440.69;5027440;28;20033;-71
2022/07/31 07:34:18;;;;;;;10.57;5.85;;;;;;;31.28;42.07;99443.97;5026431;28;20034;-70
2022/07/31 07:36:44;;;;;;;8.65;5.70;;;;;;;31.25;43.32;99450.06;5026513;28;20025;-73
2022/07/31 07:39:09;;;;;;;8.18;6.22;;;;;;;31.64;42.19;99457.69;5027338;28;20378;-74
2022/07/31 07:41:37;;;;;;;10.05;6.63;;;;;;;31.05;43.29;99439.47;5024389;28;20030;-71
2022/07/31 07:44:03;;;;;;;7.60;5.63;;;;;;;31.46;42.12;99449.63;5026933;28;20053;-71
2022/07/31 07:46:29;;;;;;;8.10;5.63;;;;;;;31.48;42.87;99445.47;5006520;28;20340;-71
2022/07/31 07:48:54;;;;;;;9.98;6.40;;;;;;;31.26;44.02;99446.22;5023413;28;20045;-73
2022/07/31 07:51:20;;;;;;;10.00;6.70;;;;;;;31.61;43.26;99446.53;5008241;28;20018;-73
2022/07/31 07:53:45;;;;;;;7.85;6.40;;;;;;;31.95;41.78;99444.13;5026624;28;20046;-73
2022/07/31 07:56:11;;;;;;;7.80;5.70;;;;;;;31.79;40.80;99417.41;5026243;28;20018;-71
2022/07/31 07:58:36;;;;;;;11.10;5.88;;;;;;;31.85;41.41;99449.84;5027044;28;20327;-70
2022/07/31 08:01:02;;;;;;;6.50;5.25;;;;;;;32.02;40.94;99440.97;5025300;28;20032;-71
2022/07/31 08:03:27;;;;;;;11.25;6.25;;;;;;;32.34;40.21;99448.16;5020481;28;20152;-73
2022/07/31 08:05:53;;;;;;;8.07;5.05;;;;;;;32.40;39.93;99448.84;5025959;28;20258;-70
2022/07/31 08:08:18;;;;;;;7.22;6.07;;;;;;;31.63;40.93;99436.09;5025071;28;20040;-71
2022/07/31 08:10:44;;;;;;;5.90;4.97;;;;;;;31.92;40.81;99444.75;5027872;28;20029;-71
2022/07/31 08:13:09;;;;;;;7.43;5.70;;;;;;;32.15;40.64;99436.53;5027558;28;20038;-73
2022/07/31 08:15:35;;;;;;;8.57;5.32;;;;;;;32.28;39.97;99442.00;5026069;28;20029;-71
2022/07/31 08:18:00;;;;;;;8.55;5.47;;;;;;;32.39;40.00;99434.34;5027661;28;20205;-71
2022/07/31 08:20:25;;;;;;;7.28;5.88;;;;;;;32.37;40.25;99433.84;5025834;28;20072;-73
2022/07/31 08:22:52;;;;;;;7.57;6.78;;;;;;;32.48;40.65;99437.13;5020895;28;20370;-73
2022/07/31 08:25:17;;;;;;;8.93;6.80;;;;;;;32.68;39.85;99434.63;5025057;28;20026;-73
2022/07/31 08:27:43;;;;;;;8.95;6.38;;;;;;;32.51;40.54;99433.75;5024814;28;20077;-73
2022/07/31 08:30:09;;;;;;;9.50;6.72;;;;;;;32.47;41.29;99430.81;5025187;28;20315;-73
2022/07/31 08:32:34;;;;;;;7.07;6.20;;;;;;;32.84;40.75;99431.50;5027037;28;20388;-71
2022/07/31 08:35:00;;;;;;;14.68;7.00;;;;;;;32.95;39.40;99430.09;5025871;28;20060;-71
2022/07/31 08:37:26;;;;;;;10.60;7.07;;;;;;;33.05;39.47;99429.81;5024318;28;20132;-71
2022/07/31 08:39:51;;;;;;;10.57;6.28;;;;;;;33.13;38.12;99428.22;5024391;28;20216;-73
2022/07/31 08:42:17;;;;;;;10.23;6.55;;;;;;;32.74;38.83;99407.09;5024956;28;20033;-71
2022/07/31 08:44:44;;;;;;;6.50;5.90;;;;;;;32.98;38.93;99423.97;5025852;28;20030;-71
2022/07/31 08:47:13;;;;;;;6.63;5.35;;;;;;;32.97;37.52;99422.34;5025488;28;20042;-71
2022/07/31 08:49:42;;;;;;;8.60;6.43;;;;;;;32.99;37.85;99426.41;5008854;28;20220;-73
2022/07/31 08:52:16;;;;;;;6.82;6.07;;;;;;;33.36;37.27;99426.22;5025626;28;20223;-72
2022/07/31 08:54:42;;;;;;;8.55;5.80;;;;;;;33.27;38.02;99421.47;5022867;28;20264;-71
2022/07/31 08:57:09;;;;;;;6.95;5.63;;;;;;;33.52;37.06;99408.16;5020889;28;20339;-71
2022/07/31 08:59:36;;;;;;;6.85;6.13;;;;;;;33.60;38.06;99412.84;5024160;28;20091;-73
2022/07/31 09:02:03;;;;;;;8.65;7.05;;;;;;;33.61;37.73;99404.28;5025888;28;20029;-73
2022/07/31 09:04:30;;;;;;;10.57;6.85;;;;;;;33.53;37.55;99396.03;5025001;28;20040;-71
2022/07/31 09:06:59;;;;;;;9.60;5.93;;;;;;;33.37;37.83;99395.72;5025877;28;20033;-73
2022/07/31 09:09:25;;;;;;;9.60;6.70;;;;;;;33.43;37.29;99396.38;5022300;28;20042;-71
2022/07/31 09:11:53;;;;;;;9.00;6.00;;;;;;;33.47;36.86;99400.09;5024445;28;20101;-71
2022/07/31 09:14:33;;;;;;;6.90;6.20;;;;;;;33.38;37.34;99397.31;5023265;28;20068;-71
2022/07/31 09:17:00;;;;;;;8.40;7.57;;;;;;;33.30;37.52;99393.44;5021475;28;20026;-70
2022/07/31 09:19:44;;;;;;;8.05;5.97;;;;;;;33.22;37.21;99399.66;5026191;28;20064;-74
2022/07/31 09:22:23;;;;;;;8.57;6.60;;;;;;;33.48;38.16;99385.22;5023557;28;20205;-71
2022/07/31 09:24:49;;;;;;;8.20;6.97;;;;;;;33.33;38.16;99397.50;5024441;28;20367;-74
2022/07/31 09:27:16;;;;;;;7.78;6.07;;;;;;;33.48;36.94;99396.22;5023582;28;20036;-73
2022/07/31 09:29:44;;;;;;;9.98;7.85;;;;;;;33.11;37.67;99392.88;5023847;28;20030;-71
2022/07/31 09:32:18;;;;;;;9.50;6.68;;;;;;;33.38;38.06;99385.53;5025216;28;20323;-73
2022/07/31 09:34:44;;;;;;;7.60;6.80;;;;;;;33.35;37.22;99375.22;5026963;28;20242;-73
2022/07/31 09:37:19;;;;;;;7.35;6.65;;;;;;;33.39;36.86;99376.19;5025541;28;20062;-71
2022/07/31 09:39:51;;;;;;;9.00;7.00;;;;;;;33.47;37.29;99375.38;5023611;28;20026;-74
2022/07/31 09:42:18;;;;;;;9.50;6.63;;;;;;;33.33;36.74;99371.97;5024915;28;20353;-73
2022/07/31 09:44:45;;;;;;;7.72;6.90;;;;;;;33.60;36.19;99361.50;5024562;28;20026;-71
2022/07/31 09:47:31;;;;;;;8.35;7.32;;;;;;;33.60;36.94;99364.25;5023578;28;20087;-72
2022/07/31 09:50:01;;;;;;;9.27;6.75;;;;;;;33.57;36.73;99358.59;5006172;28;20021;-73
2022/07/31 09:52:29;;;;;;;10.02;7.00;;;;;;;33.70;36.62;99354.84;5027501;28;20044;-73
2022/07/31 09:55:05;;;;;;;7.90;7.10;;;;;;;33.87;36.39;99349.38;5024266;28;20040;-71
2022/07/31 09:57:31;;;;;;;11.43;8.05;;;;;;;33.74;36.75;99350.34;5023304;28;20075;-73
2022/07/31 09:59:57;;;;;;;7.07;6.38;;;;;;;33.67;36.19;99347.28;5023352;28;20029;-73
2022/07/31 10:02:26;;;;;;;10.07;7.30;;;;;;;33.54;36.29;99338.09;5019854;28;20021;-71
2022/07/31 10:04:55;;;;;;;8.30;7.43;;;;;;;33.47;35.81;99332.28;5020792;28;20053;-71
2022/07/31 10:07:25;;;;;;;14.00;12.57;;;;;;;32.97;36.51;99342.81;5024642;28;20037;-73
2022/07/31 10:09:58;;;;;;;9.80;6.63;;;;;;;33.04;36.34;99336.88;5024307;28;20029;-72
2022/07/31 10:12:27;;;;;;;;;;;;;;;32.97;36.00;99338.16;5007905;28;20108;-73
2022/07/31 10:14:57;;;;;;;8.68;6.45;;;;;;;32.95;36.45;99325.88;5037203;28;19959;-71
2022/07/31 10:17:27;;;;;;;8.13;6.00;;;;;;;33.13;34.74;99313.00;5041358;28;20041;-73
2022/07/31 10:19:57;;;;;;;7.35;6.30;;;;;;;33.25;34.96;99324.13;5028740;28;20021;-71
2022/07/31 10:22:26;;;;;;;7.85;6.88;;;;;;;33.12;36.53;99330.59;5041867;28;20036;-71
2022/07/31 10:24:54;;;;;;;8.15;5.90;;;;;;;33.20;35.56;99329.78;5038839;28;20036;-70
2022/07/31 10:27:20;;;;;;;7.35;5.53;;;;;;;33.33;35.27;99323.41;5035180;28;20041;-71
2022/07/31 10:29:46;;;;;;;6.10;5.25;;;;;;;33.42;34.70;99312.41;5037155;28;20051;-73
2022/07/31 10:32:12;;;;;;;7.53;5.63;;;;;;;33.41;34.40;99325.31;5042528;28;20258;-73
2022/07/31 10:34:38;;;;;;;13.70;5.57;;;;;;;33.22;34.23;99308.31;5048395;28;20095;-71
2022/07/31 10:37:17;;;;;;;7.43;6.43;;;;;;;33.23;34.20;99315.41;5042021;28;20069;-73
2022/07/31 10:39:51;;;;;;;7.75;6.57;;;;;;;33.07;34.43;99304.13;5042116;28;20034;-74
2022/07/31 10:43:00;;;;;;;7.68;5.88;;;;;;;33.31;34.58;99309.19;5047957;28;20034;-73
2022/07/31 10:45:26;;;;;;;5.47;4.97;;;;;;;33.28;33.44;99290.56;5019678;28;20235;-73
2022/07/31 10:47:53;;;;;;;11.20;5.20;;;;;;;33.39;33.63;99288.38;5051668;28;20113;-71
2022/07/31 10:50:21;;;;;;;8.05;5.20;;;;;;;33.34;33.77;99297.56;5041461;28;20260;-73
2022/07/31 10:52:46;;;;;;;5.35;4.35;;;;;;;33.41;32.56;99295.13;5022889;28;20319;-71
2022/07/31 10:55:16;;;;;;;4.95;4.45;;;;;;;33.47;32.86;99298.53;5043787;28;20157;-73
2022/07/31 10:57:42;;;;;;;7.22;4.20;;;;;;;33.47;33.10;99302.06;5033661;28;20041;-72
2022/07/31 11:00:13;;;;;;;7.40;4.50;;;;;;;33.53;31.96;99286.25;5041448;28;20160;-71
2022/07/31 11:02:38;;;;;;;5.13;4.57;;;;;;;33.42;32.37;99295.94;5034630;28;20037;-73
2022/07/31 11:05:12;;;;;;;5.47;3.92;;;;;;;33.37;32.28;99294.19;5035245;28;20326;-74
2022/07/31 11:07:43;;;;;;;4.30;3.55;;;;;;;33.27;31.53;99288.94;5041310;28;20133;-71
2022/07/31 11:10:13;;;;;;;12.18;9.90;;;;;;;33.01;33.09;99288.94;5040787;28;20065;-73
2022/07/31 11:12:39;;;;;;;3.97;3.50;;;;;;;33.29;32.10;99282.06;5023895;28;20025;-71
2022/07/31 11:15:19;;;;;;;6.13;3.38;;;;;;;33.52;31.51;99290.94;5041474;28;20029;-73
2022/07/31 11:17:45;;;;;;;3.55;3.25;;;;;;;33.52;31.54;99285.44;5044180;28;20048;-71
2022/07/31 11:20:20;;;;;;;4.85;3.72;;;;;;;33.36;31.78;99283.53;5044657;28;20037;-74
2022/07/31 11:23:02;;;;;;;17.98;10.65;;;;;;;33.35;31.12;99273.69;5027231;28;20315;-71
2022/07/31 11:25:29;;;;;;;14.20;12.10;;;;;;;33.27;32.08;99272.50;5026812;28;20025;-71
2022/07/31 11:28:23;;;;;;;13.13;11.38;;;;;;;33.29;30.55;99270.22;5044627;28;20056;-71
2022/07/31 11:31:00;;;;;;;4.43;3.42;;;;;;;33.43;30.15;99264.63;5040603;28;20074;-73
2022/07/31 11:33:42;;;;;;;5.18;4.68;;;;;;;33.40;31.17;99266.09;5044411;28;20033;-73
2022/07/31 11:36:16;;;;;;;3.65;3.28;;;;;;;33.37;31.29;99274.16;5044712;28;20029;-71
2022/07/31 11:38:44;;;;;;;4.43;3.45;;;;;;;33.19;31.39;99279.59;5044573;28;20044;-72